Due to severe server failure at the provider, not all demo sites are operational. Will take some days to rebuilt everything.

Demonstration site - Click on the  for more information

This is an optional block. Switch it on/off in your settings-file: $SITE['bannerTop'] = false; or $SITE['bannerBottom'] = false;

You can display ads, any other important text or photo’s using text / html or PHP code.

You can place one or more at the top and or bottom and it can all be different for content / size .



Visit our other weather sites:

Template documentation
and downloads

And another site



Nearby METAR Reports

   
EBAW - Antwerp
Updated: 08-05-2021 12:50
Light Rain, Overcast  
Light Rain, Overcast  
   Wind: SSE 20.4 km/h
Wind: SSE 20.4 km/h
Temperature: 11°C
Dew Point: 8°C
Humidity: 82%
Barometer: 1011 hPa
Clouds: Overcast
Visibility: More than 10 km
Cloud details: Mostly Cloudy 3000 ft,
Overcast 3400 ft
EBAW 081050Z 15011KT 9999 -RA BKN030 OVC034 11/08 Q1011 TEMPO 4500 RA BKN014
EBLG - Liège
Updated: 08-05-2021 12:50
Light Rain, Mostly Cloudy  
Light Rain, Mostly Cloudy  
   Wind: South 25.9 km/h
Wind: South 25.9 km/h
Temperature: 12°C
Dew Point: 3°C
Humidity: 54%
Barometer: 1013 hPa
Clouds: Mostly Cloudy
Visibility: More than 10 km
Cloud details: Few Clouds 2900 ft,
Mostly Cloudy 4600 ft
EBLG 081050Z 17014KT 9999 -RA FEW029 BKN046 12/03 Q1013 NOSIG
EBCV - Mons/Bergen
Updated: 08-05-2021 12:55
Overcast  
Overcast  
   Wind: South 22.2 km/h
Wind: South 22.2 km/h
Temperature: 11°C
Dew Point: 9°C
Humidity: 88%
Barometer: 1011 hPa
Clouds: Overcast
Visibility: More than 10 km
Cloud details: Mostly Cloudy 2100 ft,
Overcast 2900 ft
EBCV 081055Z AUTO 18012KT 9999 BKN021/// OVC029/// 11/09 Q1011 WHT
EHBK - Maastricht
Updated: 08-05-2021 12:55
Partly Cloudy  
Partly Cloudy  
   Wind: South 18.5 km/h
Wind: South 18.5 km/h
Temperature: 13°C
Dew Point: 3°C
Humidity: 51%
Barometer: 1013 hPa
Clouds: Partly Cloudy
Visibility: More than 10 km
Cloud details: Partly Cloudy ft
EHBK 081055Z AUTO 17010KT 130V210 9999 NSC 13/03 Q1013 NOSIG
ELLX - Luxemburg
Updated: 08-05-2021 12:50
Partly Cloudy  
Partly Cloudy  
   Wind: South 16.7 km/h
Wind: South 16.7 km/h
Temperature: 12°C
Dew Point: 4°C
Humidity: 58%
Barometer: 1015 hPa
Clouds: Partly Cloudy
Visibility: More than 10 km
Cloud details: Partly Cloudy 4500 ft
ELLX 081050Z 18009KT 9999 SCT045 12/04 Q1015 NOSIG
EBOS - Oostende
Updated: 08-05-2021 12:50
Light Rain, Drizzle, Mist, Mostly Cloudy  
Light Rain, Drizzle, Mist, Mostly Cloudy  
   Wind: South 22.2 km/h
Wind: South 22.2 km/h
Temperature: 10°C
Wind Chill: 7°C
Dew Point: 9°C
Humidity: 94%
Barometer: 1009 hPa
Clouds: Mostly Cloudy
Visibility: 4 km
Cloud details: Partly Cloudy 500 ft,
Partly Cloudy 700 ft,
Mostly Cloudy 1000 ft
EBOS 081050Z 17012KT 150V210 4000 -RADZ BR SCT005 SCT007 BKN010 10/09 Q1009 TEMPO 2500 RADZ BKN007

Script developed by  Saratoga-weather.org Adapted for the template by  Weerstation Leuven

This is an optional block. Switch it on/off in your settings-file: $SITE['bannerTop'] = false; or $SITE['bannerBottom'] = false;

You can display ads, any other important text or photo’s using text / html or PHP code.

You can place one or more at the top and or bottom and it can all be different for content / size .